Time;durP1;ratioP1;P1;durP2;ratioP2;P2;SDS_P1;SDS_P2;PMS_P1;PMS_P2;Temp;Humidity;BMP_temperature;BMP_pressure;BME280_temperature;BME280_humidity;BME280_pressure;Samples;Min_cycle;Max_cycle;Signal;HPM_P1;HPM_P2
2021/04/19 00:00:17;;;;;;;10.67;6.53;;;6.70;96.60;;;;;;5101175;28;20264;-72
2021/04/19 00:02:43;;;;;;;11.23;6.40;;;6.70;96.60;;;;;;5081985;28;20677;-72
2021/04/19 00:05:13;;;;;;;12.07;6.43;;;6.70;96.50;;;;;;5100273;28;20285;-71
2021/04/19 00:07:39;;;;;;;13.37;7.47;;;6.70;96.40;;;;;;5102559;28;20193;-72
2021/04/19 00:10:06;;;;;;;11.33;8.00;;;6.70;96.40;;;;;;5098841;28;20182;-71
2021/04/19 00:12:32;;;;;;;13.20;8.30;;;6.80;96.20;;;;;;5102345;28;20213;-72
2021/04/19 00:14:58;;;;;;;15.10;7.50;;;6.70;96.20;;;;;;5096574;28;20182;-71
2021/04/19 00:17:24;;;;;;;13.00;7.63;;;6.70;96.20;;;;;;5100207;28;20181;-72
2021/04/19 00:19:50;;;;;;;15.77;7.13;;;6.70;96.20;;;;;;5099235;28;20173;-71
2021/04/19 00:22:15;;;;;;;11.00;7.43;;;6.70;96.20;;;;;;5099770;28;20186;-74
2021/04/19 00:24:41;;;;;;;12.60;7.50;;;6.80;96.20;;;;;;5098228;28;20185;-73
2021/04/19 00:27:07;;;;;;;12.47;7.07;;;6.80;96.20;;;;;;5101928;28;20997;-73
2021/04/19 00:29:33;;;;;;;18.13;7.20;;;6.80;96.20;;;;;;5100491;28;20193;-72
2021/04/19 00:31:58;;;;;;;12.63;7.33;;;6.90;96.20;;;;;;5101948;28;20206;-73
2021/04/19 00:34:24;;;;;;;14.83;6.97;;;6.80;96.20;;;;;;5097648;28;20184;-72
2021/04/19 00:36:50;;;;;;;13.40;6.70;;;6.80;96.10;;;;;;5101601;28;20937;-72
2021/04/19 00:39:16;;;;;;;16.27;7.57;;;6.90;96.20;;;;;;5098458;28;20269;-72
2021/04/19 00:41:43;;;;;;;15.43;6.97;;;6.90;96.20;;;;;;5100935;28;20358;-72
2021/04/19 00:44:09;;;;;;;10.87;6.93;;;6.90;96.10;;;;;;5100393;28;20265;-72
2021/04/19 00:46:34;;;;;;;11.60;5.87;;;6.90;96.10;;;;;;5100822;28;20762;-73
2021/04/19 00:49:00;;;;;;;14.27;7.10;;;6.90;96.00;;;;;;5097604;28;20241;-74
2021/04/19 00:51:26;;;;;;;14.87;7.23;;;6.90;96.00;;;;;;5082555;28;20645;-70
2021/04/19 00:53:53;;;;;;;17.53;7.60;;;7.00;96.00;;;;;;5100862;28;20178;-69
2021/04/19 00:56:18;;;;;;;15.33;7.30;;;6.90;95.90;;;;;;5102392;28;20855;-69
2021/04/19 00:58:46;;;;;;;11.20;6.43;;;6.90;95.90;;;;;;5101493;28;20216;-68
2021/04/19 01:01:13;;;;;;;12.40;7.10;;;6.90;95.80;;;;;;5097918;28;20793;-68
2021/04/19 01:03:39;;;;;;;10.10;6.03;;;6.90;95.80;;;;;;5099424;28;20174;-68
2021/04/19 01:06:05;;;;;;;13.30;7.63;;;6.90;95.80;;;;;;5101246;28;20767;-69
2021/04/19 01:08:32;;;;;;;19.97;7.03;;;6.90;95.80;;;;;;5099113;28;20215;-71
2021/04/19 01:10:57;;;;;;;12.40;6.90;;;6.90;95.70;;;;;;5101354;28;20518;-68
2021/04/19 01:13:23;;;;;;;9.60;6.60;;;6.90;95.70;;;;;;5101021;28;20193;-68
2021/04/19 01:15:49;;;;;;;9.73;6.10;;;6.90;95.70;;;;;;5092686;28;20224;-70
2021/04/19 01:18:15;;;;;;;13.07;6.07;;;6.90;95.70;;;;;;5096502;28;20174;-71
2021/04/19 01:20:42;;;;;;;10.57;6.27;;;6.90;95.60;;;;;;5084523;28;20189;-70
2021/04/19 01:23:10;;;;;;;8.17;4.83;;;6.90;95.60;;;;;;5104817;28;20177;-69
2021/04/19 01:25:36;;;;;;;6.93;4.60;;;6.90;95.50;;;;;;5083898;28;20678;-69
2021/04/19 01:28:02;;;;;;;7.43;5.63;;;6.90;95.60;;;;;;5100517;28;20197;-69
2021/04/19 01:30:35;;;;;;;7.53;4.90;;;6.90;95.40;;;;;;5102642;28;20183;-69
2021/04/19 01:33:02;;;;;;;6.10;4.40;;;6.90;95.20;;;;;;5102615;28;20192;-69
2021/04/19 01:35:28;;;;;;;8.37;4.93;;;6.90;95.20;;;;;;5093485;28;20197;-69
2021/04/19 01:37:54;;;;;;;6.63;3.77;;;6.90;95.20;;;;;;5101671;28;20177;-69
2021/04/19 01:40:20;;;;;;;10.97;5.43;;;6.90;95.20;;;;;;5102809;28;20263;-69
2021/04/19 01:42:46;;;;;;;4.87;4.30;;;6.80;95.40;;;;;;5103367;28;20733;-69
2021/04/19 01:45:14;;;;;;;6.13;4.77;;;6.90;95.40;;;;;;5101438;28;20206;-69
2021/04/19 01:47:40;;;;;;;7.53;4.47;;;6.80;95.40;;;;;;5099948;28;20327;-69
2021/04/19 01:50:27;;;;;;;4.47;3.33;;;6.90;95.40;;;;;;5101306;28;20173;-69
2021/04/19 01:52:54;;;;;;;5.10;3.83;;;6.90;95.00;;;;;;5102809;28;20170;-69
2021/04/19 01:55:23;;;;;;;4.70;4.23;;;6.90;95.50;;;;;;5102216;28;20178;-69
2021/04/19 01:57:56;;;;;;;9.87;4.50;;;6.90;95.20;;;;;;5102549;28;20177;-70
2021/04/19 02:00:24;;;;;;;4.47;4.10;;;6.80;95.00;;;;;;5099689;28;20209;-69
2021/04/19 02:02:52;;;;;;;4.83;3.90;;;6.90;95.20;;;;;;5103243;28;20177;-70
2021/04/19 02:05:38;;;;;;;5.47;3.53;;;6.90;95.20;;;;;;5101947;28;20216;-70
2021/04/19 02:08:26;;;;;;;5.07;4.00;;;6.90;95.00;;;;;;5101584;28;20592;-69
2021/04/19 02:11:10;;;;;;;4.67;4.03;;;6.90;95.00;;;;;;5103846;28;20180;-69
2021/04/19 02:13:44;;;;;;;7.83;4.40;;;6.90;95.10;;;;;;5101394;28;21028;-70
2021/04/19 02:16:17;;;;;;;5.23;4.53;;;6.90;94.90;;;;;;5094444;28;20616;-71
2021/04/19 02:19:01;;;;;;;4.50;4.10;;;6.90;95.10;;;;;;5098627;28;20228;-69
2021/04/19 02:21:46;;;;;;;5.00;4.50;;;6.80;94.90;;;;;;5101065;28;20760;-70
2021/04/19 02:24:23;;;;;;;6.70;4.60;;;6.80;94.90;;;;;;5083750;28;20239;-69
2021/04/19 02:26:54;;;;;;;6.23;4.37;;;6.80;95.00;;;;;;5096828;28;20284;-69
2021/04/19 02:29:34;;;;;;;6.93;5.20;;;6.80;95.10;;;;;;5102630;28;20179;-69
2021/04/19 02:32:04;;;;;;;6.70;4.13;;;6.80;95.20;;;;;;5097634;28;20169;-69
2021/04/19 02:34:32;;;;;;;4.57;3.77;;;6.80;95.40;;;;;;5096825;28;20906;-69
2021/04/19 02:37:01;;;;;;;8.70;4.70;;;6.80;95.40;;;;;;5095906;28;21568;-69
2021/04/19 02:39:29;;;;;;;5.57;4.43;;;6.80;95.40;;;;;;5098916;28;20220;-69
2021/04/19 02:41:56;;;;;;;5.03;4.50;;;6.80;95.20;;;;;;5100999;28;20275;-69
2021/04/19 02:44:22;;;;;;;9.37;4.80;;;6.90;95.40;;;;;;5101961;28;20255;-70
2021/04/19 02:46:54;;;;;;;7.33;4.87;;;6.80;95.20;;;;;;5083506;28;20205;-69
2021/04/19 02:49:22;;;;;;;5.17;3.93;;;6.80;95.40;;;;;;5081435;28;21859;-70
2021/04/19 02:51:50;;;;;;;5.37;4.40;;;6.80;95.60;;;;;;5092628;28;20285;-70
2021/04/19 02:54:21;;;;;;;6.10;3.20;;;6.80;95.50;;;;;;5083257;28;20662;-69
2021/04/19 02:56:49;;;;;;;6.20;4.40;;;6.80;95.40;;;;;;5095469;28;20844;-69
2021/04/19 02:59:17;;;;;;;6.43;4.60;;;6.80;95.20;;;;;;5100802;28;20181;-69
2021/04/19 03:01:48;;;;;;;4.53;4.13;;;6.80;95.00;;;;;;5095770;28;20596;-69
2021/04/19 03:04:16;;;;;;;5.87;4.77;;;6.80;95.00;;;;;;5098525;28;20179;-69
2021/04/19 03:06:47;;;;;;;7.27;3.67;;;6.80;95.10;;;;;;5098792;28;20220;-70
2021/04/19 03:09:16;;;;;;;4.97;3.90;;;6.80;95.00;;;;;;5100728;28;20205;-69
2021/04/19 03:11:54;;;;;;;5.27;4.03;;;6.80;95.20;;;;;;5104160;28;20250;-69
2021/04/19 03:14:24;;;;;;;4.93;4.40;;;6.80;95.20;;;;;;5097727;28;20181;-69
2021/04/19 03:17:19;;;;;;;4.40;3.77;;;6.70;95.20;;;;;;5099976;28;20666;-69
2021/04/19 03:19:48;;;;;;;6.03;4.37;;;6.70;95.10;;;;;;5097953;28;20569;-69
2021/04/19 03:22:16;;;;;;;10.00;5.07;;;6.70;95.40;;;;;;5095453;28;20174;-70
2021/04/19 03:24:44;;;;;;;7.27;5.07;;;6.70;95.50;;;;;;5100837;28;20184;-69
2021/04/19 03:27:11;;;;;;;5.93;4.83;;;6.70;95.40;;;;;;5102299;28;20189;-70
2021/04/19 03:29:40;;;;;;;6.37;4.77;;;6.70;95.30;;;;;;5103170;28;21544;-69
2021/04/19 03:32:09;;;;;;;5.30;3.97;;;6.70;95.20;;;;;;5102887;28;20193;-69
2021/04/19 03:34:37;;;;;;;5.47;4.07;;;6.70;95.30;;;;;;5100139;28;20189;-69
2021/04/19 03:37:11;;;;;;;5.07;4.07;;;6.70;95.40;;;;;;5098765;28;20190;-69
2021/04/19 03:39:38;;;;;;;4.00;3.17;;;6.70;95.40;;;;;;5095734;28;20181;-69
2021/04/19 03:42:05;;;;;;;5.57;4.17;;;6.70;95.50;;;;;;5094870;28;20182;-69
2021/04/19 03:44:35;;;;;;;6.13;4.30;;;6.70;95.50;;;;;;5099950;28;20205;-69
2021/04/19 03:47:03;;;;;;;4.70;4.10;;;6.70;95.50;;;;;;5095313;28;20197;-69
2021/04/19 03:49:35;;;;;;;3.70;3.40;;;6.70;95.40;;;;;;5094545;28;20185;-68
2021/04/19 03:52:09;;;;;;;13.00;4.13;;;6.80;95.20;;;;;;5094113;28;20186;-69
2021/04/19 03:54:39;;;;;;;5.70;4.00;;;6.80;95.10;;;;;;5097464;28;20209;-69
2021/04/19 03:57:07;;;;;;;5.03;4.33;;;6.80;95.10;;;;;;5094430;28;20203;-69
2021/04/19 03:59:36;;;;;;;4.27;3.97;;;6.80;95.10;;;;;;5095910;28;20190;-69
2021/04/19 04:02:04;;;;;;;3.63;3.33;;;6.80;95.10;;;;;;5093333;28;20947;-70
2021/04/19 04:04:31;;;;;;;5.63;4.20;;;6.80;95.10;;;;;;5095680;28;20367;-71
2021/04/19 04:06:58;;;;;;;7.80;4.13;;;6.80;95.20;;;;;;5098887;28;20209;-70
2021/04/19 04:09:25;;;;;;;5.00;3.20;;;6.90;95.10;;;;;;5100972;28;20193;-67
2021/04/19 04:11:51;;;;;;;7.00;4.13;;;6.90;95.10;;;;;;5101119;28;20909;-67
2021/04/19 04:14:17;;;;;;;7.30;4.57;;;6.90;95.10;;;;;;5101909;28;20212;-67
2021/04/19 04:16:43;;;;;;;7.80;5.07;;;6.90;95.10;;;;;;5085304;28;20193;-70
2021/04/19 04:19:10;;;;;;;7.07;4.77;;;6.90;95.10;;;;;;5101316;28;20185;-71
2021/04/19 04:21:36;;;;;;;7.87;5.20;;;6.90;95.10;;;;;;5103192;28;20174;-70
2021/04/19 04:24:03;;;;;;;6.17;4.10;;;6.90;95.10;;;;;;5098036;28;20178;-70
2021/04/19 04:26:30;;;;;;;5.80;4.27;;;6.90;95.10;;;;;;5101300;28;20224;-70
2021/04/19 04:28:56;;;;;;;11.97;5.50;;;7.00;95.10;;;;;;5098137;28;20177;-70
2021/04/19 04:31:21;;;;;;;5.57;4.70;;;7.00;95.10;;;;;;5103428;28;20200;-70
2021/04/19 04:33:47;;;;;;;7.73;5.33;;;7.00;95.20;;;;;;5097594;28;20181;-70
2021/04/19 04:36:13;;;;;;;6.80;5.20;;;7.00;95.20;;;;;;5081976;28;20246;-71
2021/04/19 04:38:39;;;;;;;6.57;5.23;;;7.10;95.10;;;;;;5098803;28;20174;-70
2021/04/19 04:41:04;;;;;;;9.60;5.33;;;7.10;95.10;;;;;;5098836;28;20901;-70
2021/04/19 04:43:31;;;;;;;8.43;5.27;;;7.10;95.10;;;;;;5099375;28;20185;-71
2021/04/19 04:46:15;;;;;;;6.80;5.67;;;7.10;95.10;;;;;;5098528;28;20205;-70
2021/04/19 04:48:53;;;;;;;15.50;6.87;;;7.10;94.90;;;;;;5090146;28;20243;-70
2021/04/19 04:51:22;;;;;;;8.03;5.83;;;7.10;95.10;;;;;;5081994;28;20220;-70
2021/04/19 04:53:55;;;;;;;7.97;5.87;;;7.10;95.10;;;;;;5094757;28;20178;-71
2021/04/19 04:56:27;;;;;;;11.37;6.53;;;7.20;95.00;;;;;;5099422;28;20178;-70
2021/04/19 04:58:55;;;;;;;9.57;6.37;;;7.20;95.00;;;;;;5101992;28;20658;-71
2021/04/19 05:01:24;;;;;;;14.20;7.13;;;7.20;95.20;;;;;;5092437;28;20224;-71
2021/04/19 05:03:50;;;;;;;15.30;7.40;;;7.20;95.20;;;;;;5100908;28;20165;-70
2021/04/19 05:06:18;;;;;;;11.63;6.60;;;7.20;95.30;;;;;;5102087;28;20247;-70
2021/04/19 05:08:43;;;;;;;13.53;7.37;;;7.20;95.30;;;;;;5106491;28;20185;-71
2021/04/19 05:11:11;;;;;;;11.17;6.70;;;7.30;95.40;;;;;;5104832;28;20176;-70
2021/04/19 05:13:38;;;;;;;10.57;6.93;;;7.30;95.50;;;;;;5100305;28;20190;-71
2021/04/19 05:16:04;;;;;;;15.37;7.23;;;7.30;95.50;;;;;;5079828;28;20210;-71
2021/04/19 05:18:30;;;;;;;13.33;7.13;;;7.30;95.60;;;;;;5103452;28;20178;-69
2021/04/19 05:20:56;;;;;;;15.50;7.33;;;7.30;95.60;;;;;;5102144;28;20181;-69
2021/04/19 05:23:22;;;;;;;10.03;6.10;;;7.30;95.80;;;;;;5102479;28;20646;-73
2021/04/19 05:25:49;;;;;;;8.00;5.57;;;7.30;95.80;;;;;;5100822;28;20220;-71
2021/04/19 05:28:18;;;;;;;12.37;6.73;;;7.30;95.70;;;;;;5098038;28;20189;-71
2021/04/19 05:30:45;;;;;;;10.27;6.70;;;7.30;95.70;;;;;;5099871;28;20238;-69
2021/04/19 05:33:11;;;;;;;12.03;7.37;;;7.40;95.80;;;;;;5100191;28;20631;-70
2021/04/19 05:35:37;;;;;;;11.43;6.63;;;7.40;95.80;;;;;;5104624;28;20177;-72
2021/04/19 05:38:04;;;;;;;13.73;7.57;;;7.40;95.80;;;;;;5098471;28;20630;-72
2021/04/19 05:40:34;;;;;;;14.27;8.33;;;7.40;95.90;;;;;;5102165;28;20254;-71
2021/04/19 05:43:01;;;;;;;11.43;6.57;;;7.50;95.90;;;;;;5102819;28;20179;-72
2021/04/19 05:45:28;;;;;;;10.47;7.03;;;7.50;95.90;;;;;;5104126;28;20299;-70
2021/04/19 05:47:54;;;;;;;10.57;7.40;;;7.50;95.90;;;;;;5106919;28;20177;-70
2021/04/19 05:50:25;;;;;;;11.87;6.80;;;7.50;96.00;;;;;;5104878;28;20178;-69
2021/04/19 05:52:53;;;;;;;12.83;7.10;;;7.50;95.90;;;;;;5106005;28;20193;-71
2021/04/19 05:55:22;;;;;;;13.07;7.43;;;7.50;95.90;;;;;;5104179;28;20212;-70
2021/04/19 05:58:08;;;;;;;9.03;6.63;;;7.50;95.90;;;;;;5103620;28;20178;-70
2021/04/19 06:00:56;;;;;;;10.47;6.87;;;7.50;95.80;;;;;;5104139;28;20189;-71
2021/04/19 06:03:42;;;;;;;15.10;6.87;;;7.50;95.90;;;;;;5102300;28;20322;-69
2021/04/19 06:06:37;;;;;;;13.47;5.93;;;7.50;95.70;;;;;;5105795;28;20226;-70
2021/04/19 06:09:12;;;;;;;8.90;6.50;;;7.60;95.70;;;;;;5105137;28;21852;-70
2021/04/19 06:11:50;;;;;;;11.47;6.37;;;7.60;95.90;;;;;;5104601;28;20185;-70
2021/04/19 06:14:21;;;;;;;15.60;7.53;;;7.60;96.00;;;;;;5106008;28;20197;-70
2021/04/19 06:16:48;;;;;;;11.93;6.90;;;7.70;96.00;;;;;;5105570;28;20184;-70
2021/04/19 06:19:16;;;;;;;13.00;7.63;;;7.70;96.10;;;;;;5104895;28;20174;-70
2021/04/19 06:21:42;;;;;;;11.77;7.13;;;7.60;96.10;;;;;;5105658;28;20192;-69
2021/04/19 06:24:09;;;;;;;13.20;7.00;;;7.60;96.20;;;;;;5104920;28;20181;-69
2021/04/19 06:26:36;;;;;;;12.33;7.37;;;7.60;96.30;;;;;;5104846;28;20226;-70
2021/04/19 06:29:05;;;;;;;15.57;8.20;;;7.60;96.60;;;;;;5101075;28;20200;-70
2021/04/19 06:31:32;;;;;;;12.97;7.40;;;7.60;96.60;;;;;;5105207;28;20460;-70
2021/04/19 06:34:07;;;;;;;12.90;7.37;;;7.70;96.50;;;;;;5084588;28;20673;-71
2021/04/19 06:36:34;;;;;;;8.37;6.93;;;7.70;96.40;;;;;;5104011;28;20212;-71
2021/04/19 06:38:59;;;;;;;12.03;8.00;;;7.70;96.60;;;;;;5103694;28;20189;-71
2021/04/19 06:41:26;;;;;;;10.20;7.63;;;7.80;96.40;;;;;;5102989;28;20575;-71
2021/04/19 06:43:52;;;;;;;13.07;7.83;;;7.80;96.40;;;;;;5082664;28;20695;-71
2021/04/19 06:46:18;;;;;;;12.27;7.03;;;7.80;96.50;;;;;;5102608;28;20678;-70
2021/04/19 06:48:44;;;;;;;17.93;8.83;;;7.90;96.50;;;;;;5101281;28;20191;-70
2021/04/19 06:51:11;;;;;;;11.37;7.47;;;7.90;96.40;;;;;;5102363;28;20272;-70
2021/04/19 06:53:37;;;;;;;13.20;7.43;;;7.90;96.30;;;;;;5103462;28;20186;-70
2021/04/19 06:56:05;;;;;;;11.27;6.93;;;7.90;96.20;;;;;;5102841;28;20185;-72
2021/04/19 06:58:33;;;;;;;15.00;7.73;;;8.00;96.20;;;;;;5102883;28;20174;-71
2021/04/19 07:00:59;;;;;;;12.90;7.13;;;8.00;96.20;;;;;;5104412;28;20237;-71
2021/04/19 07:03:27;;;;;;;15.00;7.60;;;8.00;96.00;;;;;;5103425;28;20193;-70
2021/04/19 07:05:54;;;;;;;13.57;6.93;;;8.00;95.80;;;;;;5101782;28;20251;-71
2021/04/19 07:08:37;;;;;;;12.77;7.97;;;8.00;95.90;;;;;;5103042;28;20654;-71
2021/04/19 07:11:05;;;;;;;11.50;7.70;;;8.00;95.60;;;;;;5100914;28;20265;-72
2021/04/19 07:13:35;;;;;;;11.67;7.43;;;8.00;96.10;;;;;;5104063;28;20197;-69
2021/04/19 07:16:02;;;;;;;14.63;8.97;;;8.00;96.00;;;;;;5104031;28;20170;-70
2021/04/19 07:18:28;;;;;;;11.93;7.73;;;8.00;96.20;;;;;;5102992;28;20272;-69
2021/04/19 07:20:54;;;;;;;15.53;7.47;;;8.00;96.30;;;;;;5101984;28;20178;-70
2021/04/19 07:23:20;;;;;;;13.10;8.30;;;8.10;96.30;;;;;;5104114;28;20173;-70
2021/04/19 07:25:46;;;;;;;13.67;7.97;;;8.10;96.20;;;;;;5101110;28;20233;-70
2021/04/19 07:28:14;;;;;;;14.23;8.80;;;8.20;96.20;;;;;;5101400;28;20189;-70
2021/04/19 07:30:43;;;;;;;13.60;7.90;;;8.20;96.00;;;;;;5100822;28;20642;-70
2021/04/19 07:33:31;;;;;;;11.33;8.10;;;8.20;96.00;;;;;;5102427;28;20657;-70
2021/04/19 07:35:57;;;;;;;21.43;8.50;;;8.20;95.70;;;;;;5103662;28;20182;-70
2021/04/19 07:38:36;;;;;;;14.77;8.67;;;8.10;95.80;;;;;;5100763;28;20295;-70
2021/04/19 07:41:02;;;;;;;13.90;8.53;;;8.10;95.80;;;;;;5102081;28;20871;-70
2021/04/19 07:43:35;;;;;;;11.23;8.20;;;8.10;96.10;;;;;;5103816;28;20204;-71
2021/04/19 07:46:09;;;;;;;15.10;9.23;;;8.00;96.20;;;;;;5102181;28;20356;-70
2021/04/19 07:48:46;;;;;;;13.20;8.67;;;8.00;96.40;;;;;;5100409;28;20185;-70
2021/04/19 07:51:31;;;;;;;12.00;8.37;;;8.00;96.70;;;;;;5103262;28;20235;-70
2021/04/19 07:54:15;;;;;;;13.90;8.50;;;8.00;96.70;;;;;;5103002;28;20190;-70
2021/04/19 07:56:46;;;;;;;12.07;7.60;;;8.00;96.60;;;;;;5098929;28;20268;-70
2021/04/19 07:59:32;;;;;;;9.47;7.10;;;8.00;96.80;;;;;;5102740;28;20571;-70
2021/04/19 08:02:03;;;;;;;11.03;6.87;;;8.00;96.60;;;;;;5102548;28;20181;-70
2021/04/19 08:04:29;;;;;;;12.30;6.83;;;7.90;96.90;;;;;;5099595;28;20188;-70
2021/04/19 08:06:56;;;;;;;10.10;6.97;;;7.90;97.30;;;;;;5101839;28;20305;-70
2021/04/19 08:09:24;;;;;;;9.50;5.60;;;7.90;97.50;;;;;;5083994;28;20247;-70
2021/04/19 08:11:52;;;;;;;9.60;5.67;;;7.90;97.40;;;;;;5101625;28;20189;-69
2021/04/19 08:14:18;;;;;;;7.87;5.63;;;7.70;97.00;;;;;;5101530;28;20197;-70
2021/04/19 08:16:43;;;;;;;7.47;5.20;;;7.70;97.10;;;;;;5103645;28;20574;-71
2021/04/19 08:19:09;;;;;;;9.13;5.60;;;7.70;97.30;;;;;;5099779;28;20590;-70
2021/04/19 08:21:35;;;;;;;7.00;4.63;;;7.70;97.70;;;;;;5103147;28;20196;-71
2021/04/19 08:24:17;;;;;;;4.73;3.40;;;7.70;97.70;;;;;;5101607;28;20189;-71
2021/04/19 08:26:57;;;;;;;3.50;2.70;;;7.60;96.80;;;;;;5098873;28;20209;-71
2021/04/19 08:29:43;;;;;;;2.53;2.33;;;7.60;96.30;;;;;;5101156;28;20635;-70
2021/04/19 08:32:09;;;;;;;1.60;1.50;;;7.60;96.20;;;;;;5099640;28;20177;-71
2021/04/19 08:34:36;;;;;;;2.17;1.13;;;7.50;95.30;;;;;;5099847;28;20200;-71
2021/04/19 08:37:03;;;;;;;2.00;1.10;;;7.50;95.20;;;;;;5100136;28;20269;-71
2021/04/19 08:39:34;;;;;;;1.40;1.30;;;7.50;95.70;;;;;;5099572;28;20272;-71
2021/04/19 08:42:02;;;;;;;1.83;1.40;;;7.60;96.20;;;;;;5099963;28;20189;-71
2021/04/19 08:44:32;;;;;;;2.47;1.10;;;7.60;96.40;;;;;;5083869;28;20658;-71
2021/04/19 08:46:59;;;;;;;2.10;1.33;;;7.70;96.40;;;;;;5100727;28;20202;-71
2021/04/19 08:49:26;;;;;;;1.63;1.07;;;7.80;96.10;;;;;;5102871;28;20256;-71
2021/04/19 08:52:00;;;;;;;1.10;1.00;;;7.90;96.30;;;;;;5082311;28;20549;-71
2021/04/19 08:54:26;;;;;;;0.93;0.93;;;7.90;95.90;;;;;;5101856;28;20186;-70
2021/04/19 08:56:53;;;;;;;1.07;0.93;;;8.00;96.00;;;;;;5083416;28;20182;-71
2021/04/19 08:59:21;;;;;;;2.10;1.30;;;8.10;95.90;;;;;;5102327;28;20186;-71
2021/04/19 09:01:47;;;;;;;3.53;1.63;;;8.20;95.90;;;;;;5102231;28;20182;-71
2021/04/19 09:04:13;;;;;;;1.40;1.30;;;8.30;95.80;;;;;;5102525;28;20178;-70
2021/04/19 09:06:47;;;;;;;2.00;1.37;;;8.40;95.60;;;;;;5103267;28;20270;-71
2021/04/19 09:09:42;;;;;;;1.30;1.20;;;8.50;95.40;;;;;;5101965;28;20268;-70
2021/04/19 09:12:10;;;;;;;1.53;1.50;;;8.60;95.30;;;;;;5100513;28;20185;-70
2021/04/19 09:14:42;;;;;;;2.03;1.93;;;8.70;95.40;;;;;;5101020;28;20263;-71
2021/04/19 09:17:08;;;;;;;1.93;1.83;;;8.90;95.40;;;;;;5102248;28;20189;-71
2021/04/19 09:19:36;;;;;;;4.13;2.03;;;9.00;95.20;;;;;;5102392;28;20185;-71
2021/04/19 09:22:13;;;;;;;2.23;2.10;;;9.10;94.60;;;;;;5101941;28;20568;-70
2021/04/19 09:25:04;;;;;;;1.90;1.80;;;9.30;94.00;;;;;;5101149;28;20181;-70
2021/04/19 09:27:49;;;;;;;2.13;1.90;;;9.40;94.20;;;;;;5097498;28;20183;-70
2021/04/19 09:30:35;;;;;;;2.60;2.40;;;9.40;93.50;;;;;;5087071;28;20189;-70
2021/04/19 09:33:06;;;;;;;3.00;2.63;;;9.50;93.70;;;;;;5098621;28;20207;-71
2021/04/19 09:38:13;;;;;;;2.33;2.20;;;9.60;93.30;;;;;;5095005;28;20201;-69
2021/04/19 09:40:56;;;;;;;3.07;2.70;;;9.60;93.30;;;;;;5100246;28;20186;-69
2021/04/19 09:43:46;;;;;;;3.17;2.90;;;9.60;93.30;;;;;;5101445;28;20202;-69
2021/04/19 09:46:19;;;;;;;2.60;2.43;;;9.70;93.20;;;;;;5101245;28;20707;-71
2021/04/19 09:49:02;;;;;;;4.67;3.40;;;9.70;93.30;;;;;;5098770;28;20203;-70
2021/04/19 09:51:37;;;;;;;3.30;3.10;;;9.80;92.90;;;;;;5102467;28;20178;-70
2021/04/19 09:54:05;;;;;;;3.40;3.20;;;9.90;92.70;;;;;;5078788;28;20216;-71
2021/04/19 09:56:45;;;;;;;3.83;3.53;;;9.90;92.80;;;;;;5098942;28;20181;-71
2021/04/19 09:59:19;;;;;;;3.90;3.27;;;10.00;92.60;;;;;;5091446;28;20186;-71
2021/04/19 10:01:49;;;;;;;4.30;3.20;;;10.10;92.40;;;;;;5101340;28;20182;-71
2021/04/19 10:04:15;;;;;;;3.77;3.47;;;10.20;92.10;;;;;;5097217;28;20239;-69
2021/04/19 10:07:03;;;;;;;4.57;3.43;;;10.20;92.00;;;;;;5105084;28;20213;-71
2021/04/19 10:09:30;;;;;;;1.70;1.60;;;10.20;91.60;;;;;;5098569;28;20182;-71
2021/04/19 10:12:00;;;;;;;2.00;1.90;;;10.10;89.00;;;;;;5104038;28;20248;-69
2021/04/19 10:14:27;;;;;;;2.30;1.70;;;10.00;89.50;;;;;;5100740;28;20170;-69
2021/04/19 10:16:53;;;;;;;2.57;2.37;;;9.90;90.50;;;;;;5105608;28;20178;-71
2021/04/19 10:19:27;;;;;;;1.93;1.83;;;9.90;91.40;;;;;;5102279;28;20182;-71
2021/04/19 10:22:04;;;;;;;2.23;1.97;;;9.90;91.80;;;;;;5105363;28;20188;-71
2021/04/19 10:24:32;;;;;;;2.50;2.40;;;10.10;92.00;;;;;;5103267;28;20182;-69
2021/04/19 10:26:57;;;;;;;2.72;2.53;;;10.20;91.90;;;;;;5102437;28;20206;-70
2021/04/19 10:29:27;;;;;;;2.33;1.98;;;10.30;91.80;;;;;;5102701;28;20303;-70
2021/04/19 10:32:00;;;;;;;1.50;1.40;;;10.40;90.90;;;;;;5097765;28;20205;-70
2021/04/19 10:34:31;;;;;;;5.13;1.40;;;10.50;89.90;;;;;;5100870;28;20181;-70
2021/04/19 10:37:01;;;;;;;1.00;1.00;;;10.60;89.60;;;;;;5081832;28;20185;-70
2021/04/19 10:39:31;;;;;;;1.30;1.00;;;10.80;89.50;;;;;;5097720;28;20199;-71
2021/04/19 10:42:00;;;;;;;1.48;1.15;;;10.90;88.80;;;;;;5098250;28;20174;-71
2021/04/19 10:44:43;;;;;;;1.30;1.30;;;11.00;88.40;;;;;;5099017;28;20570;-70
2021/04/19 10:47:11;;;;;;;1.90;0.93;;;11.00;88.00;;;;;;5074888;28;20210;-70
2021/04/19 10:49:43;;;;;;;1.50;1.30;;;11.10;88.10;;;;;;5101232;28;20186;-70
2021/04/19 10:52:10;;;;;;;0.60;0.60;;;11.10;87.10;;;;;;5096678;28;20269;-70
2021/04/19 10:54:39;;;;;;;0.52;0.52;;;11.10;87.20;;;;;;5101080;28;20705;-70
2021/04/19 10:57:06;;;;;;;0.93;0.90;;;11.20;87.10;;;;;;5100592;28;20186;-71
2021/04/19 10:59:33;;;;;;;0.70;0.70;;;11.20;86.10;;;;;;5099678;28;20178;-72
2021/04/19 11:02:05;;;;;;;0.85;0.70;;;11.10;85.50;;;;;;5096317;28;20573;-71
2021/04/19 11:04:32;;;;;;;0.70;0.70;;;11.00;85.70;;;;;;5094979;28;20185;-72
2021/04/19 11:07:31;;;;;;;0.57;0.57;;;10.90;86.30;;;;;;5092230;28;20761;-71
2021/04/19 11:10:34;;;;;;;0.50;0.50;;;10.90;86.50;;;;;;5101989;28;20188;-70
2021/04/19 11:13:08;;;;;;;0.70;0.70;;;10.90;86.70;;;;;;5094180;28;20243;-72
2021/04/19 11:15:41;;;;;;;0.73;0.50;;;10.90;86.70;;;;;;5095966;28;20186;-69
2021/04/19 11:18:20;;;;;;;1.23;0.90;;;10.90;86.60;;;;;;5097886;28;20549;-71
2021/04/19 11:20:48;;;;;;;1.02;1.02;;;11.00;86.60;;;;;;5100955;28;20902;-71
2021/04/19 11:23:31;;;;;;;1.40;1.10;;;11.00;86.80;;;;;;5096707;28;20181;-70
2021/04/19 11:26:02;;;;;;;1.17;1.15;;;11.00;86.30;;;;;;5098404;28;20212;-71
2021/04/19 11:28:31;;;;;;;1.67;0.80;;;11.00;86.10;;;;;;5099664;28;20184;-71
2021/04/19 11:30:58;;;;;;;1.10;1.10;;;10.90;85.80;;;;;;5100244;28;20182;-71
2021/04/19 11:33:26;;;;;;;0.93;0.80;;;10.80;86.00;;;;;;5099674;28;20651;-71
2021/04/19 11:35:59;;;;;;;1.20;1.10;;;10.70;86.40;;;;;;5095083;28;20190;-71
2021/04/19 11:38:26;;;;;;;0.90;0.90;;;10.60;86.60;;;;;;5100476;28;20193;-71
2021/04/19 11:41:00;;;;;;;1.02;1.02;;;10.60;86.90;;;;;;5065283;28;20185;-71
2021/04/19 11:43:32;;;;;;;4.30;2.83;;;10.50;87.00;;;;;;5099150;28;20178;-70
2021/04/19 11:46:03;;;;;;;5.22;2.55;;;10.40;87.10;;;;;;5073515;28;20205;-70
2021/04/19 11:48:32;;;;;;;0.82;0.82;;;10.40;87.20;;;;;;5088795;28;20197;-70
2021/04/19 11:53:46;;;;;;;1.00;1.00;;;10.20;87.60;;;;;;5098706;28;20185;-70
2021/04/19 11:56:12;;;;;;;1.57;1.47;;;10.20;87.90;;;;;;5094028;28;20189;-70
2021/04/19 11:58:43;;;;;;;0.98;0.98;;;10.00;87.80;;;;;;5097845;28;20295;-70
2021/04/19 12:01:11;;;;;;;0.87;0.80;;;10.00;87.90;;;;;;5098239;28;20202;-69
2021/04/19 12:03:37;;;;;;;2.17;0.97;;;10.00;88.00;;;;;;5093820;28;20190;-69
2021/04/19 12:06:04;;;;;;;0.80;0.80;;;9.90;88.10;;;;;;5095424;28;20266;-69
2021/04/19 12:08:30;;;;;;;0.65;0.65;;;9.80;88.20;;;;;;5094045;28;20190;-70
2021/04/19 12:10:56;;;;;;;0.67;0.67;;;9.80;88.30;;;;;;5098282;28;20243;-70
2021/04/19 12:13:22;;;;;;;1.07;0.83;;;;;;;;;;5076935;28;20195;-70
2021/04/19 12:15:49;;;;;;;0.70;0.70;;;9.80;88.30;;;;;;5099522;28;20196;-70
2021/04/19 12:18:15;;;;;;;0.57;0.57;;;9.70;88.60;;;;;;5076859;28;20191;-70
2021/04/19 12:20:41;;;;;;;0.80;0.80;;;9.70;88.60;;;;;;5096758;28;20182;-70
2021/04/19 12:23:07;;;;;;;0.77;0.70;;;9.70;88.60;;;;;;5096989;28;21104;-70
2021/04/19 12:25:34;;;;;;;0.57;0.57;;;9.70;88.50;;;;;;5093891;28;20219;-69
2021/04/19 12:28:00;;;;;;;0.93;0.60;;;9.60;88.50;;;;;;5097032;28;20753;-69
2021/04/19 12:30:32;;;;;;;0.50;0.50;;;9.60;87.90;;;;;;5093610;28;20180;-70
2021/04/19 12:32:58;;;;;;;0.40;0.40;;;9.50;87.80;;;;;;5095217;28;20650;-71
2021/04/19 12:35:25;;;;;;;0.60;0.30;;;9.50;87.50;;;;;;5096583;28;20562;-70
2021/04/19 12:37:51;;;;;;;0.40;0.40;;;9.40;87.40;;;;;;5096867;28;20639;-71
2021/04/19 12:40:17;;;;;;;0.40;0.40;;;9.30;87.70;;;;;;5097829;28;20186;-71
2021/04/19 12:42:43;;;;;;;1.03;0.50;;;9.30;87.70;;;;;;5096395;28;20223;-70
2021/04/19 12:45:09;;;;;;;0.40;0.40;;;9.20;87.90;;;;;;5089202;28;20181;-70
2021/04/19 12:47:36;;;;;;;0.30;0.30;;;9.20;88.10;;;;;;5093401;28;20193;-70
2021/04/19 12:50:03;;;;;;;1.50;0.40;;;9.10;88.00;;;;;;5095993;28;20186;-70
2021/04/19 12:52:29;;;;;;;0.63;0.30;;;9.10;88.20;;;;;;5092365;28;20224;-70
2021/04/19 12:54:55;;;;;;;0.33;0.30;;;;;;;;;;5090621;28;20727;-70
2021/04/19 12:57:21;;;;;;;0.20;0.20;;;;;;;;;;5093174;28;20189;-70
2021/04/19 12:59:47;;;;;;;0.20;0.20;;;9.00;87.80;;;;;;5097069;28;20182;-70
2021/04/19 13:02:12;;;;;;;0.30;0.30;;;8.90;87.80;;;;;;5096588;28;20570;-70
2021/04/19 13:04:39;;;;;;;0.87;0.30;;;;;;;;;;5092012;28;20242;-69
2021/04/19 13:07:05;;;;;;;0.33;0.23;;;;;;;;;;5095276;28;20700;-69
2021/04/19 13:09:34;;;;;;;0.30;0.30;;;8.90;88.10;;;;;;5095525;28;20553;-71
2021/04/19 13:12:00;;;;;;;0.60;0.60;;;;;;;;;;5094647;28;20639;-71